Time;durP1;ratioP1;P1;durP2;ratioP2;P2;SDS_P1;SDS_P2;PMS_P1;PMS_P2;Temp;Humidity;BMP_temperature;BMP_pressure;BME280_temperature;BME280_humidity;BME280_pressure;Samples;Min_cycle;Max_cycle;Signal;HPM_P1;HPM_P2
2022/02/28 00:00:40;;;;;;;;;4.00;4.00;;;;;;;;5076408;27;45446;-70
2022/02/28 00:03:05;;;;;;;;;5.00;5.00;;;;;;;;5076066;28;45374;-70
2022/02/28 00:05:31;;;;;;;;;4.75;4.75;;;;;;;;5073753;28;47174;-70
2022/02/28 00:07:56;;;;;;;;;4.75;3.25;;;;;;;;5074030;28;45574;-70
2022/02/28 00:10:23;;;;;;;;;5.00;5.00;;;;;;;;5077373;28;45289;-70
2022/02/28 00:12:48;;;;;;;;;8.00;5.00;;;;;;;;5076398;27;45542;-70
2022/02/28 00:15:15;;;;;;;;;5.00;4.00;;;;;;;;5075291;28;45949;-70
2022/02/28 00:17:40;;;;;;;;;4.50;4.00;;;;;;;;5076075;28;45435;-71
2022/02/28 00:20:06;;;;;;;;;4.00;4.00;;;;;;;;5076310;28;45497;-70
2022/02/28 00:22:32;;;;;;;;;5.50;5.50;;;;;;;;5077194;28;45438;-70
2022/02/28 00:24:58;;;;;;;;;3.50;3.50;;;;;;;;5075326;28;47416;-70
2022/02/28 00:27:23;;;;;;;;;5.00;5.00;;;;;;;;5077910;27;45458;-71
2022/02/28 00:29:48;;;;;;;;;4.50;4.50;;;;;;;;5076693;27;45658;-70
2022/02/28 00:32:13;;;;;;;;;4.00;4.00;;;;;;;;5076351;27;45408;-70
2022/02/28 00:34:38;;;;;;;;;7.50;6.00;;;;;;;;5076918;27;45710;-71
2022/02/28 00:37:04;;;;;;;;;6.50;4.75;;;;;;;;5075954;27;45407;-70
2022/02/28 00:39:29;;;;;;;;;4.00;4.00;;;;;;;;5075774;27;45474;-70
2022/02/28 00:41:55;;;;;;;;;4.25;4.25;;;;;;;;5076285;28;46030;-70
2022/02/28 00:44:20;;;;;;;;;7.25;4.50;;;;;;;;5086989;27;45523;-70
2022/02/28 00:46:45;;;;;;;;;6.50;4.50;;;;;;;;5076499;28;45390;-70
2022/02/28 00:49:10;;;;;;;;;4.00;4.00;;;;;;;;5075936;27;45403;-70
2022/02/28 00:51:36;;;;;;;;;4.25;4.25;;;;;;;;5076293;27;45374;-70
2022/02/28 00:54:01;;;;;;;;;5.25;4.50;;;;;;;;5075299;28;45761;-70
2022/02/28 00:56:26;;;;;;;;;5.75;4.25;;;;;;;;5075435;27;45479;-71
2022/02/28 00:58:52;;;;;;;;;4.00;4.00;;;;;;;;5075835;28;45435;-71
2022/02/28 01:01:17;;;;;;;;;6.00;5.00;;;;;;;;5074909;27;45494;-70
2022/02/28 01:03:42;;;;;;;;;5.00;5.00;;;;;;;;5074977;27;46313;-70
2022/02/28 01:06:07;;;;;;;;;6.50;6.50;;;;;;;;5075275;28;45492;-71
2022/02/28 01:08:33;;;;;;;;;4.75;4.75;;;;;;;;5057490;28;45455;-70
2022/02/28 01:10:58;;;;;;;;;7.50;6.00;;;;;;;;5074432;27;45421;-70
2022/02/28 01:13:23;;;;;;;;;6.00;6.00;;;;;;;;5075949;28;45992;-70
2022/02/28 01:15:48;;;;;;;;;5.00;5.00;;;;;;;;5075002;27;45502;-70
2022/02/28 01:18:14;;;;;;;;;6.00;4.50;;;;;;;;5075028;28;45460;-70
2022/02/28 01:20:39;;;;;;;;;5.00;5.00;;;;;;;;5075104;28;45360;-70
2022/02/28 01:23:04;;;;;;;;;7.50;6.50;;;;;;;;5075139;28;45619;-70
2022/02/28 01:25:29;;;;;;;;;8.00;6.00;;;;;;;;5076057;28;45490;-70
2022/02/28 01:27:55;;;;;;;;;5.75;5.75;;;;;;;;5074901;28;45430;-70
2022/02/28 01:30:20;;;;;;;;;6.50;5.75;;;;;;;;5074904;28;45442;-70
2022/02/28 01:32:46;;;;;;;;;5.00;5.00;;;;;;;;5076926;27;47775;-70
2022/02/28 01:35:11;;;;;;;;;7.00;5.00;;;;;;;;5075333;28;45370;-71
2022/02/28 01:37:37;;;;;;;;;8.00;6.75;;;;;;;;5081248;27;45399;-70
2022/02/28 01:40:03;;;;;;;;;4.00;4.00;;;;;;;;5075628;27;45444;-70
2022/02/28 01:42:29;;;;;;;;;5.25;3.75;;;;;;;;5068673;28;45664;-70
2022/02/28 01:44:54;;;;;;;;;5.75;5.75;;;;;;;;5079332;27;45312;-70
2022/02/28 01:47:19;;;;;;;;;6.00;6.00;;;;;;;;5074979;28;45492;-70
2022/02/28 01:49:44;;;;;;;;;6.50;5.50;;;;;;;;5074839;28;45505;-70
2022/02/28 01:52:10;;;;;;;;;6.00;6.00;;;;;;;;5074801;28;46288;-70
2022/02/28 01:54:35;;;;;;;;;6.00;5.00;;;;;;;;5076017;27;45495;-70
2022/02/28 01:57:01;;;;;;;;;7.00;4.75;;;;;;;;5074594;28;45450;-70
2022/02/28 01:59:26;;;;;;;;;5.50;5.00;;;;;;;;5073676;28;45416;-70
2022/02/28 02:01:51;;;;;;;;;6.00;6.00;;;;;;;;5074783;28;45615;-71
2022/02/28 02:04:17;;;;;;;;;5.00;4.75;;;;;;;;5062670;28;45293;-70
2022/02/28 02:06:43;;;;;;;;;5.50;5.50;;;;;;;;5071055;27;45384;-70
2022/02/28 02:09:08;;;;;;;;;5.25;4.75;;;;;;;;5074246;28;45277;-70
2022/02/28 02:11:34;;;;;;;;;6.25;5.25;;;;;;;;5074674;28;46509;-70
2022/02/28 02:13:59;;;;;;;;;6.50;6.25;;;;;;;;5074068;27;45359;-70
2022/02/28 02:16:24;;;;;;;;;7.00;7.00;;;;;;;;5075458;27;45431;-70
2022/02/28 02:18:49;;;;;;;;;5.75;5.25;;;;;;;;5074793;28;45253;-70
2022/02/28 02:21:15;;;;;;;;;5.00;5.00;;;;;;;;5074778;28;46184;-71
2022/02/28 02:23:42;;;;;;;;;6.00;6.00;;;;;;;;5086410;27;45297;-70
2022/02/28 02:26:09;;;;;;;;;5.75;5.75;;;;;;;;5077787;28;45530;-70
2022/02/28 02:28:36;;;;;;;;;7.00;6.00;;;;;;;;5078552;28;45542;-70
2022/02/28 02:31:04;;;;;;;;;5.50;5.00;;;;;;;;5078054;27;46201;-70
2022/02/28 02:33:29;;;;;;;;;8.00;8.00;;;;;;;;5077295;27;45451;-70
2022/02/28 02:35:58;;;;;;;;;5.50;5.50;;;;;;;;5077625;27;45260;-70
2022/02/28 02:38:24;;;;;;;;;6.25;5.00;;;;;;;;5077533;27;45482;-70
2022/02/28 02:40:49;;;;;;;;;5.25;5.25;;;;;;;;5077764;27;46302;-71
2022/02/28 02:43:15;;;;;;;;;6.00;6.00;;;;;;;;5078146;28;45412;-71
2022/02/28 02:45:40;;;;;;;;;6.75;6.00;;;;;;;;5077520;28;45745;-70
2022/02/28 02:48:09;;;;;;;;;6.00;5.75;;;;;;;;5074191;28;45343;-70
2022/02/28 02:50:34;;;;;;;;;10.75;6.00;;;;;;;;5063628;28;46474;-70
2022/02/28 02:52:59;;;;;;;;;5.25;5.25;;;;;;;;5077928;28;45285;-71
2022/02/28 02:55:24;;;;;;;;;6.00;5.00;;;;;;;;5065813;28;45451;-70
2022/02/28 02:57:50;;;;;;;;;5.00;5.00;;;;;;;;5080771;27;45487;-70
2022/02/28 03:00:15;;;;;;;;;6.00;6.00;;;;;;;;5082988;27;46358;-70
2022/02/28 03:02:40;;;;;;;;;7.75;7.75;;;;;;;;5077259;27;45291;-70
2022/02/28 03:05:06;;;;;;;;;8.00;5.25;;;;;;;;5077527;27;45308;-71
2022/02/28 03:07:31;;;;;;;;;6.00;6.00;;;;;;;;5078487;28;45474;-70
2022/02/28 03:09:56;;;;;;;;;6.00;6.00;;;;;;;;5076455;28;45598;-71
2022/02/28 03:12:21;;;;;;;;;3.75;3.75;;;;;;;;5077343;28;45450;-70
2022/02/28 03:14:46;;;;;;;;;6.25;6.25;;;;;;;;5077301;27;45349;-70
2022/02/28 03:17:12;;;;;;;;;7.00;6.00;;;;;;;;5077065;27;45498;-70
2022/02/28 03:19:37;;;;;;;;;5.75;5.75;;;;;;;;5062336;28;45376;-70
2022/02/28 03:22:02;;;;;;;;;8.75;7.50;;;;;;;;5075883;28;45553;-70
2022/02/28 03:24:27;;;;;;;;;7.25;6.75;;;;;;;;5076637;27;45324;-71
2022/02/28 03:26:53;;;;;;;;;7.00;6.75;;;;;;;;5076370;27;45277;-70
2022/02/28 03:29:18;;;;;;;;;4.75;4.75;;;;;;;;5077375;27;47393;-70
2022/02/28 03:31:43;;;;;;;;;7.00;6.00;;;;;;;;5078148;27;45323;-70
2022/02/28 03:34:08;;;;;;;;;8.00;6.25;;;;;;;;5075852;28;45196;-70
2022/02/28 03:36:33;;;;;;;;;6.25;6.25;;;;;;;;5079747;27;45306;-70
2022/02/28 03:38:59;;;;;;;;;7.50;6.50;;;;;;;;5076275;27;46483;-70
2022/02/28 03:41:24;;;;;;;;;7.00;7.00;;;;;;;;5076904;27;45346;-71
2022/02/28 03:43:49;;;;;;;;;6.75;6.50;;;;;;;;5077264;27;45461;-70
2022/02/28 03:46:14;;;;;;;;;6.75;6.75;;;;;;;;5078308;27;45407;-71
2022/02/28 03:48:40;;;;;;;;;5.50;5.50;;;;;;;;5076529;28;46629;-71
2022/02/28 03:51:05;;;;;;;;;6.25;6.25;;;;;;;;5076232;27;45343;-70
2022/02/28 03:53:31;;;;;;;;;6.25;6.00;;;;;;;;5077302;27;45347;-70
2022/02/28 03:55:56;;;;;;;;;6.25;4.50;;;;;;;;5076255;27;45320;-71
2022/02/28 03:58:21;;;;;;;;;6.00;6.00;;;;;;;;5077177;27;46741;-70
2022/02/28 04:00:46;;;;;;;;;6.00;5.75;;;;;;;;5076574;28;45492;-70
2022/02/28 04:03:12;;;;;;;;;7.75;7.00;;;;;;;;5078931;27;45493;-70
2022/02/28 04:05:37;;;;;;;;;5.75;5.00;;;;;;;;5077374;27;45498;-70
2022/02/28 04:08:02;;;;;;;;;5.75;5.00;;;;;;;;5076152;27;45478;-70
2022/02/28 04:10:27;;;;;;;;;5.50;5.50;;;;;;;;5076987;27;45487;-70
2022/02/28 04:12:53;;;;;;;;;8.00;6.50;;;;;;;;5080684;27;45451;-70
2022/02/28 04:15:18;;;;;;;;;10.25;7.50;;;;;;;;5083425;27;45323;-70
2022/02/28 04:17:43;;;;;;;;;6.00;4.50;;;;;;;;5076087;27;46720;-70
2022/02/28 04:20:09;;;;;;;;;7.00;5.00;;;;;;;;5076808;28;45471;-69
2022/02/28 04:22:34;;;;;;;;;5.00;5.00;;;;;;;;5076880;27;45424;-70
2022/02/28 04:24:59;;;;;;;;;7.00;5.50;;;;;;;;5076547;28;45444;-70
2022/02/28 04:27:24;;;;;;;;;4.75;4.75;;;;;;;;5075887;27;45512;-71
2022/02/28 04:29:49;;;;;;;;;6.00;6.00;;;;;;;;5076415;27;45362;-70
2022/02/28 04:32:15;;;;;;;;;8.00;7.50;;;;;;;;5076609;28;45373;-70
2022/02/28 04:34:41;;;;;;;;;5.00;5.00;;;;;;;;5092088;27;45581;-70
2022/02/28 04:37:06;;;;;;;;;6.75;6.75;;;;;;;;5076241;27;45415;-70
2022/02/28 04:39:31;;;;;;;;;8.50;6.75;;;;;;;;5077105;27;45423;-71
2022/02/28 04:41:56;;;;;;;;;6.00;5.25;;;;;;;;5078710;27;45472;-70
2022/02/28 04:44:22;;;;;;;;;6.75;6.00;;;;;;;;5075071;27;45232;-70
2022/02/28 04:46:47;;;;;;;;;7.25;5.00;;;;;;;;5076031;28;46564;-70
2022/02/28 04:49:12;;;;;;;;;6.75;6.00;;;;;;;;5075369;28;45422;-69
2022/02/28 04:51:37;;;;;;;;;6.25;6.00;;;;;;;;5076487;27;45434;-70
2022/02/28 04:54:03;;;;;;;;;7.00;5.75;;;;;;;;5084998;27;45531;-70
2022/02/28 04:56:28;;;;;;;;;6.00;6.00;;;;;;;;5075620;27;46142;-70
2022/02/28 04:58:53;;;;;;;;;7.25;7.00;;;;;;;;5084205;27;45174;-70
2022/02/28 05:01:18;;;;;;;;;6.75;6.25;;;;;;;;5076576;28;45436;-70
2022/02/28 05:03:43;;;;;;;;;5.00;5.00;;;;;;;;5075134;27;45564;-71
2022/02/28 05:06:09;;;;;;;;;6.00;6.00;;;;;;;;5075361;27;46035;-70
2022/02/28 05:08:34;;;;;;;;;7.75;6.00;;;;;;;;5078032;27;45420;-70
2022/02/28 05:10:59;;;;;;;;;7.00;6.00;;;;;;;;5077945;27;45439;-70
2022/02/28 05:13:24;;;;;;;;;7.75;6.25;;;;;;;;5077059;27;45296;-70
2022/02/28 05:15:50;;;;;;;;;6.50;6.00;;;;;;;;5078251;27;45629;-70
2022/02/28 05:18:15;;;;;;;;;6.50;6.00;;;;;;;;5074671;27;45446;-70
2022/02/28 05:20:40;;;;;;;;;6.25;5.25;;;;;;;;5078719;27;45340;-70
2022/02/28 05:23:05;;;;;;;;;7.50;5.25;;;;;;;;5075211;28;45434;-71
2022/02/28 05:25:31;;;;;;;;;7.25;6.00;;;;;;;;5088543;27;46500;-70
2022/02/28 05:27:56;;;;;;;;;9.00;7.75;;;;;;;;5059038;28;45486;-70
2022/02/28 05:30:21;;;;;;;;;8.00;6.50;;;;;;;;5075083;27;45597;-71
2022/02/28 05:32:46;;;;;;;;;8.75;8.75;;;;;;;;5074620;27;45526;-70
2022/02/28 05:35:12;;;;;;;;;7.75;6.25;;;;;;;;5074372;28;45400;-71
2022/02/28 05:37:38;;;;;;;;;4.00;3.00;;;;;;;;5076137;28;45336;-69
2022/02/28 05:40:04;;;;;;;;;8.00;7.50;;;;;;;;5056576;28;45298;-70
2022/02/28 05:42:29;;;;;;;;;6.75;6.75;;;;;;;;5069269;27;45498;-70
2022/02/28 05:44:55;;;;;;;;;4.50;4.00;;;;;;;;5064131;27;46629;-70
2022/02/28 05:47:20;;;;;;;;;5.25;5.25;;;;;;;;5074912;28;45534;-70
2022/02/28 05:49:45;;;;;;;;;6.75;5.00;;;;;;;;5077994;27;45463;-71
2022/02/28 05:52:10;;;;;;;;;6.50;5.50;;;;;;;;5075041;28;45205;-70
2022/02/28 05:54:37;;;;;;;;;7.00;7.00;;;;;;;;5076574;27;46139;-70
2022/02/28 05:57:02;;;;;;;;;7.25;6.00;;;;;;;;5073719;27;45237;-70
2022/02/28 05:59:27;;;;;;;;;8.25;5.00;;;;;;;;5074501;27;45418;-70
2022/02/28 06:01:53;;;;;;;;;6.75;6.50;;;;;;;;5077227;27;45371;-70
2022/02/28 06:04:18;;;;;;;;;6.50;6.50;;;;;;;;5074757;28;45568;-71
2022/02/28 06:06:43;;;;;;;;;5.00;4.25;;;;;;;;5075198;27;45450;-70
2022/02/28 06:09:08;;;;;;;;;6.50;6.50;;;;;;;;5074293;28;45545;-70
2022/02/28 06:11:33;;;;;;;;;7.00;6.00;;;;;;;;5074400;28;45557;-70
2022/02/28 06:13:59;;;;;;;;;6.75;6.00;;;;;;;;5075552;27;46336;-70
2022/02/28 06:16:24;;;;;;;;;7.00;6.00;;;;;;;;5075127;28;45500;-70
2022/02/28 06:18:49;;;;;;;;;8.75;6.50;;;;;;;;5074108;28;45492;-70
2022/02/28 06:21:15;;;;;;;;;7.00;7.00;;;;;;;;5074237;28;45387;-70
2022/02/28 06:23:41;;;;;;;;;8.25;6.50;;;;;;;;5074213;28;46296;-70
2022/02/28 06:26:06;;;;;;;;;7.50;7.50;;;;;;;;5074458;28;45386;-70
2022/02/28 06:28:32;;;;;;;;;6.00;6.00;;;;;;;;5075045;27;45408;-70
2022/02/28 06:30:58;;;;;;;;;6.00;6.00;;;;;;;;5074525;27;45402;-70
2022/02/28 06:33:23;;;;;;;;;6.25;5.75;;;;;;;;5073998;27;46383;-70
2022/02/28 06:35:48;;;;;;;;;8.00;6.75;;;;;;;;5077523;27;45458;-70
2022/02/28 06:38:18;;;;;;;;;6.00;5.75;;;;;;;;5071814;28;45459;-70
2022/02/28 06:40:46;;;;;;;;;8.00;6.00;;;;;;;;5071104;28;45210;-70
2022/02/28 06:43:11;;;;;;;;;6.50;5.00;;;;;;;;5073255;28;47142;-70
2022/02/28 06:45:36;;;;;;;;;8.00;7.00;;;;;;;;5073636;27;45847;-70
2022/02/28 06:48:02;;;;;;;;;7.75;6.25;;;;;;;;5073359;27;45386;-70
2022/02/28 06:50:27;;;;;;;;;9.50;7.00;;;;;;;;5073774;27;45474;-71
2022/02/28 06:52:52;;;;;;;;;4.00;4.00;;;;;;;;5074152;28;45512;-70
2022/02/28 06:55:17;;;;;;;;;6.00;5.00;;;;;;;;5074056;28;45451;-69
2022/02/28 06:57:43;;;;;;;;;5.75;5.75;;;;;;;;5073672;28;45323;-70
2022/02/28 07:00:08;;;;;;;;;7.50;6.00;;;;;;;;5074008;27;45436;-70
2022/02/28 07:02:33;;;;;;;;;8.75;6.75;;;;;;;;5085037;27;45407;-70
2022/02/28 07:04:58;;;;;;;;;7.00;7.00;;;;;;;;5088280;27;46004;-71
2022/02/28 07:07:24;;;;;;;;;4.75;4.75;;;;;;;;5075983;27;45335;-70
2022/02/28 07:09:49;;;;;;;;;5.25;5.00;;;;;;;;5077443;27;45573;-70
2022/02/28 07:12:15;;;;;;;;;6.75;6.75;;;;;;;;5076651;27;46727;-70
2022/02/28 07:14:41;;;;;;;;;9.00;7.00;;;;;;;;5076764;28;45261;-70
2022/02/28 07:17:06;;;;;;;;;6.00;6.00;;;;;;;;5076944;27;45342;-70
2022/02/28 07:19:33;;;;;;;;;5.75;5.75;;;;;;;;5078011;27;45459;-70
2022/02/28 07:21:59;;;;;;;;;8.75;6.75;;;;;;;;5076605;27;45549;-71
2022/02/28 07:24:24;;;;;;;;;6.00;5.00;;;;;;;;5076519;27;45364;-70
2022/02/28 07:26:49;;;;;;;;;7.00;5.25;;;;;;;;5077204;27;45404;-70
2022/02/28 07:29:14;;;;;;;;;7.75;6.00;;;;;;;;5058762;28;45329;-70
2022/02/28 07:31:41;;;;;;;;;7.00;5.00;;;;;;;;5077509;28;45562;-70
2022/02/28 07:34:06;;;;;;;;;9.00;6.00;;;;;;;;5077025;27;45537;-69
2022/02/28 07:36:31;;;;;;;;;7.25;6.00;;;;;;;;5076724;27;45408;-70
2022/02/28 07:38:56;;;;;;;;;6.25;6.00;;;;;;;;5076529;28;45497;-70
2022/02/28 07:41:21;;;;;;;;;5.00;5.00;;;;;;;;5076838;27;46157;-70
2022/02/28 07:43:47;;;;;;;;;5.00;5.00;;;;;;;;5077621;27;45523;-70
2022/02/28 07:46:12;;;;;;;;;5.50;5.50;;;;;;;;5079600;27;45496;-70
2022/02/28 07:48:37;;;;;;;;;5.25;5.25;;;;;;;;5081524;27;45395;-71
2022/02/28 07:51:02;;;;;;;;;4.50;4.50;;;;;;;;5076237;28;46481;-70
2022/02/28 07:53:28;;;;;;;;;4.75;4.75;;;;;;;;5087320;27;45381;-70
2022/02/28 07:55:53;;;;;;;;;5.75;5.75;;;;;;;;5076984;28;45348;-70
2022/02/28 07:58:18;;;;;;;;;5.00;5.00;;;;;;;;5083835;27;45298;-70
2022/02/28 08:00:43;;;;;;;;;7.25;6.50;;;;;;;;5077675;27;45494;-70
2022/02/28 08:03:08;;;;;;;;;5.75;5.75;;;;;;;;5076770;27;45500;-70
2022/02/28 08:05:34;;;;;;;;;6.25;6.25;;;;;;;;5076702;28;45684;-70
2022/02/28 08:07:59;;;;;;;;;6.25;6.00;;;;;;;;5076555;27;45331;-70
2022/02/28 08:10:24;;;;;;;;;7.25;7.25;;;;;;;;5077034;28;46670;-70
2022/02/28 08:12:49;;;;;;;;;8.00;7.00;;;;;;;;5075917;28;45445;-70
2022/02/28 08:15:15;;;;;;;;;8.50;6.25;;;;;;;;5075796;28;45527;-70
2022/02/28 08:17:40;;;;;;;;;6.50;5.50;;;;;;;;5076305;27;45451;-70
2022/02/28 08:20:06;;;;;;;;;6.50;6.00;;;;;;;;5058900;28;46132;-70
2022/02/28 08:22:31;;;;;;;;;6.00;6.00;;;;;;;;5077012;28;45364;-70
2022/02/28 08:24:58;;;;;;;;;6.50;5.25;;;;;;;;5076182;27;45409;-71
2022/02/28 08:27:23;;;;;;;;;6.00;6.00;;;;;;;;5075492;28;45551;-70
2022/02/28 08:29:48;;;;;;;;;6.00;6.00;;;;;;;;5076066;27;45831;-70
2022/02/28 08:32:13;;;;;;;;;6.25;6.25;;;;;;;;5076512;28;45590;-70
2022/02/28 08:34:39;;;;;;;;;6.50;6.50;;;;;;;;5076848;28;45307;-71
2022/02/28 08:37:04;;;;;;;;;6.00;5.00;;;;;;;;5076198;28;45458;-70
2022/02/28 08:39:29;;;;;;;;;7.75;7.00;;;;;;;;5075008;28;46229;-71
2022/02/28 08:41:54;;;;;;;;;6.00;5.75;;;;;;;;5076044;27;45387;-70
2022/02/28 08:44:19;;;;;;;;;6.00;6.00;;;;;;;;5075381;28;45580;-70
2022/02/28 08:46:45;;;;;;;;;7.50;7.00;;;;;;;;5079065;27;45481;-70
2022/02/28 08:49:10;;;;;;;;;5.75;5.75;;;;;;;;5075314;28;47136;-70
2022/02/28 08:51:37;;;;;;;;;6.00;6.00;;;;;;;;5075197;28;45326;-70
2022/02/28 08:54:03;;;;;;;;;6.75;5.25;;;;;;;;5075991;28;45613;-71
2022/02/28 08:56:28;;;;;;;;;5.25;5.25;;;;;;;;5058306;28;45578;-70
2022/02/28 08:58:53;;;;;;;;;4.50;3.00;;;;;;;;5075261;28;46383;-71
2022/02/28 09:01:18;;;;;;;;;6.25;5.75;;;;;;;;5076321;28;45320;-70
2022/02/28 09:03:43;;;;;;;;;5.25;5.25;;;;;;;;5075555;28;45534;-70
2022/02/28 09:06:09;;;;;;;;;5.00;5.00;;;;;;;;5072710;28;45343;-70
2022/02/28 09:08:34;;;;;;;;;6.25;5.00;;;;;;;;5061957;27;45560;-70
2022/02/28 09:10:59;;;;;;;;;9.25;6.50;;;;;;;;5075998;27;45610;-70
2022/02/28 09:13:26;;;;;;;;;5.75;5.75;;;;;;;;5076175;28;45356;-70
2022/02/28 09:15:51;;;;;;;;;8.75;5.25;;;;;;;;5076499;27;45389;-70
2022/02/28 09:18:16;;;;;;;;;6.00;5.00;;;;;;;;5076969;27;46241;-70
2022/02/28 09:20:41;;;;;;;;;7.50;4.75;;;;;;;;5075636;27;45443;-70
2022/02/28 09:23:07;;;;;;;;;6.50;6.50;;;;;;;;5075092;28;45317;-71
2022/02/28 09:25:32;;;;;;;;;10.25;6.00;;;;;;;;5076136;28;45438;-71
2022/02/28 09:27:57;;;;;;;;;7.00;6.00;;;;;;;;5074282;28;46295;-70
2022/02/28 09:30:22;;;;;;;;;6.75;5.00;;;;;;;;5074319;28;45319;-70
2022/02/28 09:32:48;;;;;;;;;6.00;6.00;;;;;;;;5075038;27;45534;-70
2022/02/28 09:35:13;;;;;;;;;7.00;6.25;;;;;;;;5074702;28;45360;-71
2022/02/28 09:37:39;;;;;;;;;8.25;5.25;;;;;;;;5075284;27;45593;-70
2022/02/28 09:40:05;;;;;;;;;5.50;5.50;;;;;;;;5074814;28;45382;-70
2022/02/28 09:42:31;;;;;;;;;9.50;7.50;;;;;;;;5069970;27;45462;-70
2022/02/28 09:44:57;;;;;;;;;5.00;5.00;;;;;;;;5077420;27;45478;-71
2022/02/28 09:47:22;;;;;;;;;7.00;6.00;;;;;;;;5075311;27;46151;-71
2022/02/28 09:49:48;;;;;;;;;5.25;5.25;;;;;;;;5075687;28;45454;-71
2022/02/28 09:52:13;;;;;;;;;6.00;6.00;;;;;;;;5075088;28;45491;-70
2022/02/28 09:54:38;;;;;;;;;5.25;5.25;;;;;;;;5075848;27;45636;-70
2022/02/28 09:57:06;;;;;;;;;6.00;6.00;;;;;;;;5074663;28;45425;-70
2022/02/28 09:59:31;;;;;;;;;4.25;4.25;;;;;;;;5074845;27;45533;-70
2022/02/28 10:01:56;;;;;;;;;5.25;5.25;;;;;;;;5075308;27;45621;-70
2022/02/28 10:04:21;;;;;;;;;5.75;5.00;;;;;;;;5075353;28;45498;-70
2022/02/28 10:06:47;;;;;;;;;6.00;4.00;;;;;;;;5074221;27;47214;-69
2022/02/28 10:09:16;;;;;;;;;4.00;4.00;;;;;;;;5074388;28;45516;-70
2022/02/28 10:11:43;;;;;;;;;5.50;5.50;;;;;;;;5073985;27;45376;-70
2022/02/28 10:14:09;;;;;;;;;5.75;5.75;;;;;;;;5073828;28;45367;-70
2022/02/28 10:16:39;;;;;;;;;7.00;6.00;;;;;;;;5075397;28;46235;-69
2022/02/28 10:19:06;;;;;;;;;5.00;5.00;;;;;;;;5051841;28;45431;-70
2022/02/28 10:21:39;;;;;;;;;5.75;5.00;;;;;;;;5076349;27;45502;-70
2022/02/28 10:24:07;;;;;;;;;5.00;5.00;;;;;;;;5074081;28;45593;-70
2022/02/28 10:26:39;;;;;;;;;7.00;5.50;;;;;;;;5073464;28;46578;-70
2022/02/28 10:29:05;;;;;;;;;8.00;6.00;;;;;;;;5074516;27;45543;-70
2022/02/28 10:31:37;;;;;;;;;4.50;4.50;;;;;;;;5075402;28;45447;-70
2022/02/28 10:34:12;;;;;;;;;4.00;4.00;;;;;;;;5074002;28;45644;-70
2022/02/28 10:36:37;;;;;;;;;5.00;5.00;;;;;;;;5073810;28;46660;-70
2022/02/28 10:39:07;;;;;;;;;5.50;5.00;;;;;;;;5074440;27;45218;-70
2022/02/28 10:41:36;;;;;;;;;6.00;4.25;;;;;;;;5073848;28;45407;-70
2022/02/28 10:44:01;;;;;;;;;5.00;4.75;;;;;;;;5076699;28;45329;-70
2022/02/28 10:46:29;;;;;;;;;7.00;6.00;;;;;;;;5078446;28;45430;-70
2022/02/28 10:49:07;;;;;;;;;7.25;5.75;;;;;;;;5077587;28;45410;-70
2022/02/28 10:51:46;;;;;;;;;6.00;5.00;;;;;;;;5077672;27;45463;-70
2022/02/28 10:54:29;;;;;;;;;7.50;5.00;;;;;;;;5076445;28;45663;-70
2022/02/28 10:56:54;;;;;;;;;8.00;5.50;;;;;;;;5080862;27;46469;-70
2022/02/28 10:59:21;;;;;;;;;5.50;4.00;;;;;;;;5077317;28;49230;-70
2022/02/28 11:01:46;;;;;;;;;9.50;4.00;;;;;;;;5074181;28;45391;-70
2022/02/28 11:04:12;;;;;;;;;8.75;6.00;;;;;;;;5077104;28;45649;-70
2022/02/28 11:06:38;;;;;;;;;9.00;6.50;;;;;;;;5070152;28;46588;-70
2022/02/28 11:09:04;;;;;;;;;6.75;5.50;;;;;;;;5067187;27;45541;-70
2022/02/28 11:11:30;;;;;;;;;6.00;5.00;;;;;;;;5077799;28;45371;-70
2022/02/28 11:13:55;;;;;;;;;5.00;5.00;;;;;;;;5077545;27;45430;-70
2022/02/28 11:16:21;;;;;;;;;6.75;5.00;;;;;;;;5076918;28;46498;-69
2022/02/28 11:18:47;;;;;;;;;5.00;5.00;;;;;;;;5077228;27;45398;-70
2022/02/28 11:21:13;;;;;;;;;5.50;5.50;;;;;;;;5077675;28;45372;-70
2022/02/28 11:23:39;;;;;;;;;5.75;5.00;;;;;;;;5076416;27;45378;-70
2022/02/28 11:26:04;;;;;;;;;4.25;4.25;;;;;;;;5076919;28;47285;-69
2022/02/28 11:28:29;;;;;;;;;7.75;5.25;;;;;;;;5064021;28;45361;-70
2022/02/28 11:31:05;;;;;;;;;8.25;4.75;;;;;;;;5090240;27;45465;-69
2022/02/28 11:33:30;;;;;;;;;3.75;3.75;;;;;;;;5076787;28;45288;-70
2022/02/28 11:35:56;;;;;;;;;6.00;5.25;;;;;;;;5076530;28;46179;-69
2022/02/28 11:38:23;;;;;;;;;5.25;5.00;;;;;;;;5076108;27;45395;-70
2022/02/28 11:40:51;;;;;;;;;5.00;4.00;;;;;;;;5077947;27;45276;-70
2022/02/28 11:43:17;;;;;;;;;5.00;5.00;;;;;;;;5077206;28;45375;-70
2022/02/28 11:46:21;;;;;;;;;8.00;7.00;;;;;;;;5076130;27;46258;-70
2022/02/28 11:48:50;;;;;;;;;4.50;4.00;;;;;;;;4990682;28;45495;-69
2022/02/28 11:51:21;;;;;;;;;4.00;4.00;;;;;;;;5011283;28;45582;-70
2022/02/28 11:53:49;;;;;;;;;5.75;4.25;;;;;;;;5013138;28;45518;-70
2022/02/28 11:56:16;;;;;;;;;3.00;3.00;;;;;;;;5014318;28;46858;-70
2022/02/28 11:58:56;;;;;;;;;4.00;3.25;;;;;;;;5014709;28;45317;-70
2022/02/28 12:01:35;;;;;;;;;4.75;4.75;;;;;;;;5010550;28;45384;-69
2022/02/28 12:04:06;;;;;;;;;5.25;4.00;;;;;;;;5014710;28;45420;-70
2022/02/28 12:06:50;;;;;;;;;3.75;3.75;;;;;;;;5018895;28;46168;-70
2022/02/28 12:09:35;;;;;;;;;6.75;5.00;;;;;;;;5014225;28;45361;-70
2022/02/28 12:12:22;;;;;;;;;8.00;4.00;;;;;;;;5013540;28;45580;-69
2022/02/28 12:17:31;;;;;;;;;4.25;4.25;;;;;;;;5015791;28;45581;-69
2022/02/28 12:20:14;;;;;;;;;4.00;4.00;;;;;;;;5029475;28;45425;-69
2022/02/28 12:22:51;;;;;;;;;7.75;6.25;;;;;;;;5056186;28;45768;-70
2022/02/28 12:25:37;;;;;;;;;3.00;3.00;;;;;;;;5056274;28;45632;-70
2022/02/28 12:28:21;;;;;;;;;4.75;4.25;;;;;;;;5046157;28;46249;-70
2022/02/28 12:30:57;;;;;;;;;4.25;3.50;;;;;;;;5051298;28;45313;-70
2022/02/28 12:33:25;;;;;;;;;7.25;5.50;;;;;;;;5051077;28;45317;-69
2022/02/28 12:35:54;;;;;;;;;5.50;3.50;;;;;;;;5051531;28;45298;-69
2022/02/28 12:38:27;;;;;;;;;5.50;4.75;;;;;;;;5040237;28;46192;-69
2022/02/28 12:40:53;;;;;;;;;5.00;4.00;;;;;;;;5037077;28;45389;-69
2022/02/28 12:43:19;;;;;;;;;4.75;4.75;;;;;;;;5055734;28;45522;-69
2022/02/28 12:45:48;;;;;;;;;4.00;3.75;;;;;;;;5054927;28;45495;-70
2022/02/28 12:48:15;;;;;;;;;4.00;4.00;;;;;;;;5046980;28;46883;-69
2022/02/28 12:50:50;;;;;;;;;4.00;4.00;;;;;;;;5067835;27;48823;-69
2022/02/28 12:53:16;;;;;;;;;5.00;5.00;;;;;;;;5075283;28;45304;-70
2022/02/28 12:55:56;;;;;;;;;5.25;5.25;;;;;;;;5076634;28;45631;-69
2022/02/28 12:58:23;;;;;;;;;6.75;4.50;;;;;;;;5079949;27;45520;-69
2022/02/28 13:00:48;;;;;;;;;6.00;4.25;;;;;;;;5079630;27;45406;-69
2022/02/28 13:03:14;;;;;;;;;4.00;4.00;;;;;;;;5083700;27;45485;-69
2022/02/28 13:05:40;;;;;;;;;4.50;4.00;;;;;;;;5074944;27;45406;-70
2022/02/28 13:08:05;;;;;;;;;6.00;5.00;;;;;;;;5058558;28;45511;-69
2022/02/28 13:10:30;;;;;;;;;4.00;4.00;;;;;;;;5076517;28;45467;-69
2022/02/28 13:12:55;;;;;;;;;5.00;5.00;;;;;;;;5075244;27;45421;-69
2022/02/28 13:15:21;;;;;;;;;5.00;5.00;;;;;;;;5075262;28;45948;-69
2022/02/28 13:17:46;;;;;;;;;5.00;4.00;;;;;;;;5075170;28;46440;-69
2022/02/28 13:20:11;;;;;;;;;4.50;4.50;;;;;;;;5075086;28;45436;-69
2022/02/28 13:22:38;;;;;;;;;4.50;4.50;;;;;;;;5076017;28;45895;-69
2022/02/28 13:25:04;;;;;;;;;4.50;4.50;;;;;;;;5075165;28;45396;-70
2022/02/28 13:27:29;;;;;;;;;5.75;4.00;;;;;;;;5075167;28;46185;-69
2022/02/28 13:29:55;;;;;;;;;8.25;5.75;;;;;;;;5074633;27;45394;-69
2022/02/28 13:32:21;;;;;;;;;4.50;4.50;;;;;;;;5075340;27;45411;-70
2022/02/28 13:34:47;;;;;;;;;6.75;5.00;;;;;;;;5075609;28;45284;-69
2022/02/28 13:37:15;;;;;;;;;4.75;4.00;;;;;;;;5075037;28;45454;-69
2022/02/28 13:39:40;;;;;;;;;4.75;3.00;;;;;;;;5074386;28;45691;-69
2022/02/28 13:42:07;;;;;;;;;5.00;3.75;;;;;;;;5075079;27;45335;-69
2022/02/28 13:44:36;;;;;;;;;5.00;4.00;;;;;;;;5074901;28;45571;-69
2022/02/28 13:47:02;;;;;;;;;4.00;4.00;;;;;;;;5074953;28;46792;-70
2022/02/28 13:49:38;;;;;;;;;5.25;4.00;;;;;;;;5074897;28;45510;-69
2022/02/28 13:52:08;;;;;;;;;3.00;3.00;;;;;;;;5074343;28;45488;-69
2022/02/28 13:54:34;;;;;;;;;3.25;3.25;;;;;;;;5074054;28;45452;-69
2022/02/28 13:57:15;;;;;;;;;7.00;4.00;;;;;;;;5074268;28;46606;-69
2022/02/28 13:59:41;;;;;;;;;5.50;3.75;;;;;;;;5074691;27;45406;-69
2022/02/28 14:02:07;;;;;;;;;5.25;4.25;;;;;;;;5074829;28;45283;-69
2022/02/28 14:04:34;;;;;;;;;6.00;5.00;;;;;;;;5075148;28;45225;-70
2022/02/28 14:06:59;;;;;;;;;7.00;6.00;;;;;;;;5064811;28;47192;-69
2022/02/28 14:09:25;;;;;;;;;5.00;3.25;;;;;;;;5067242;28;45341;-70
2022/02/28 14:11:51;;;;;;;;;5.00;3.50;;;;;;;;5074655;28;45416;-69
2022/02/28 14:14:17;;;;;;;;;5.00;5.00;;;;;;;;5074167;28;45541;-70
2022/02/28 14:16:42;;;;;;;;;6.00;3.75;;;;;;;;5081039;27;45387;-70
2022/02/28 14:19:11;;;;;;;;;7.00;4.75;;;;;;;;5065306;28;45530;-70
2022/02/28 14:21:39;;;;;;;;;3.50;3.50;;;;;;;;5073964;28;45415;-70
2022/02/28 14:24:05;;;;;;;;;3.75;3.75;;;;;;;;5074169;28;45370;-70
2022/02/28 14:26:32;;;;;;;;;4.75;4.75;;;;;;;;5074199;28;47113;-70
2022/02/28 14:29:04;;;;;;;;;4.00;4.00;;;;;;;;5074499;28;45381;-71
2022/02/28 14:31:29;;;;;;;;;4.00;4.00;;;;;;;;5056921;28;45447;-70
2022/02/28 14:33:55;;;;;;;;;5.00;4.25;;;;;;;;5073480;28;45497;-70
2022/02/28 14:36:20;;;;;;;;;6.25;5.00;;;;;;;;5074157;28;46157;-70
2022/02/28 14:38:45;;;;;;;;;7.00;4.75;;;;;;;;5074319;28;45438;-70
2022/02/28 14:41:11;;;;;;;;;7.00;3.75;;;;;;;;5074420;28;45461;-70